createdAt,value
2018-09-06T00:02:04.937Z,71.30
2018-09-06T00:04:32.466Z,71.20
2018-09-06T00:06:59.958Z,71.00
2018-09-06T00:09:27.430Z,71.30
2018-09-06T00:11:55.049Z,70.70
2018-09-06T00:14:22.892Z,70.50
2018-09-06T00:16:50.406Z,70.70
2018-09-06T00:19:17.956Z,71.20
2018-09-06T00:21:45.774Z,71.10
2018-09-06T00:24:13.340Z,71.80
2018-09-06T00:26:40.940Z,70.80
2018-09-06T00:29:08.494Z,71.60
2018-09-06T00:31:36.031Z,71.90
2018-09-06T00:34:03.529Z,71.40
2018-09-06T00:36:31.040Z,71.50
2018-09-06T00:38:58.793Z,71.30
2018-09-06T00:41:26.317Z,72.00
2018-09-06T00:43:53.871Z,71.50
2018-09-06T00:46:22.342Z,72.00
2018-09-06T00:48:49.875Z,71.00
2018-09-06T00:51:17.501Z,72.30
2018-09-06T00:53:45.013Z,72.10
2018-09-06T00:56:12.567Z,71.90
2018-09-06T00:58:41.613Z,72.40
2018-09-06T01:01:09.688Z,73.20
2018-09-06T01:03:37.932Z,72.70
2018-09-06T01:06:05.422Z,72.10
2018-09-06T01:08:32.972Z,72.10
2018-09-06T01:11:00.581Z,72.20
2018-09-06T01:13:28.152Z,72.10
2018-09-06T01:15:55.655Z,73.30
2018-09-06T01:18:23.180Z,72.40
2018-09-06T01:20:50.744Z,72.70
2018-09-06T01:23:18.317Z,72.90
2018-09-06T01:25:48.311Z,74.80
2018-09-06T01:28:16.918Z,74.60
2018-09-06T01:30:44.476Z,75.10
2018-09-06T01:33:12.008Z,75.00
2018-09-06T01:35:47.103Z,75.00
2018-09-06T01:38:14.713Z,74.10
2018-09-06T01:40:42.300Z,74.90
2018-09-06T01:43:14.918Z,74.80
2018-09-06T01:45:42.439Z,74.70
2018-09-06T01:48:10.008Z,74.80
2018-09-06T01:50:37.519Z,74.70
2018-09-06T01:53:05.089Z,74.70
2018-09-06T01:55:32.656Z,74.20
2018-09-06T01:58:00.194Z,74.60
2018-09-06T02:00:27.699Z,74.60
2018-09-06T02:03:00.177Z,74.50
2018-09-06T02:05:29.806Z,74.50
2018-09-06T02:07:57.612Z,74.50
2018-09-06T02:10:25.093Z,74.60
2018-09-06T02:12:52.642Z,74.50
2018-09-06T02:15:20.143Z,76.40
2018-09-06T02:17:47.723Z,75.50
2018-09-06T02:20:15.228Z,75.70
2018-09-06T02:22:42.742Z,75.60
2018-09-06T02:25:10.484Z,76.30
2018-09-06T02:27:38.186Z,76.70
2018-09-06T02:30:05.958Z,77.00
2018-09-06T02:32:33.432Z,76.60
2018-09-06T02:35:00.880Z,76.60
2018-09-06T02:37:28.381Z,75.80
2018-09-06T02:39:55.943Z,76.10
2018-09-06T02:42:23.422Z,76.20
2018-09-06T02:44:50.901Z,76.70
2018-09-06T02:47:18.459Z,76.10
2018-09-06T02:49:51.695Z,75.80
2018-09-06T02:52:19.224Z,76.00
2018-09-06T02:54:46.731Z,76.30
2018-09-06T02:57:14.352Z,76.90
2018-09-06T02:59:44.550Z,77.30
2018-09-06T03:02:12.003Z,77.50
2018-09-06T03:04:39.601Z,77.70
2018-09-06T03:07:07.103Z,78.60
2018-09-06T03:09:34.675Z,78.80
2018-09-06T03:12:03.896Z,78.70
2018-09-06T03:14:31.454Z,78.80
2018-09-06T03:16:59.018Z,79.20
2018-09-06T03:19:26.868Z,78.50
2018-09-06T03:21:54.352Z,79.20
2018-09-06T03:24:21.826Z,78.30
2018-09-06T03:26:49.264Z,79.00
2018-09-06T03:29:16.767Z,79.20
2018-09-06T03:31:44.331Z,79.20
2018-09-06T03:34:11.965Z,79.90
2018-09-06T03:36:39.501Z,79.20
2018-09-06T03:39:07.963Z,79.20
2018-09-06T03:41:35.504Z,79.60
2018-09-06T03:44:03.204Z,79.80
2018-09-06T03:46:30.772Z,79.60
2018-09-06T03:48:58.223Z,80.00
2018-09-06T03:51:25.801Z,80.10
2018-09-06T03:53:53.300Z,79.80
2018-09-06T03:56:20.792Z,79.10
2018-09-06T03:58:48.302Z,79.10
2018-09-06T04:01:16.194Z,79.10
2018-09-06T04:03:43.748Z,78.00
2018-09-06T04:06:11.353Z,77.40
2018-09-06T04:08:38.831Z,78.10
2018-09-06T04:11:06.333Z,78.90
2018-09-06T04:13:33.877Z,79.00
2018-09-06T04:16:01.429Z,79.00
2018-09-06T04:18:28.931Z,78.90
2018-09-06T04:20:56.678Z,78.90
2018-09-06T04:23:24.193Z,78.90
2018-09-06T04:25:51.679Z,78.70
2018-09-06T04:28:19.242Z,78.30
2018-09-06T04:30:46.936Z,78.90
2018-09-06T04:33:14.409Z,78.80
2018-09-06T04:35:41.925Z,78.80
2018-09-06T04:38:09.492Z,78.80
2018-09-06T04:40:37.044Z,78.90
2018-09-06T04:43:04.590Z,78.90
2018-09-06T04:45:32.073Z,78.80
2018-09-06T04:47:59.489Z,79.40
2018-09-06T04:50:27.156Z,79.60
2018-09-06T04:52:54.817Z,79.90
2018-09-06T04:55:22.377Z,79.20
2018-09-06T04:57:49.933Z,79.30
2018-09-06T05:00:17.514Z,78.80
2018-09-06T05:02:44.949Z,78.90
2018-09-06T05:05:12.495Z,78.90
2018-09-06T05:07:40.111Z,79.10
2018-09-06T05:10:07.798Z,78.90
2018-09-06T05:12:35.350Z,78.60
2018-09-06T05:15:03.088Z,78.00
2018-09-06T05:17:30.585Z,77.70
2018-09-06T05:19:58.069Z,77.50
2018-09-06T05:22:25.658Z,77.40
2018-09-06T05:24:53.374Z,77.20
2018-09-06T05:27:21.329Z,77.20
2018-09-06T05:29:49.007Z,74.50
2018-09-06T05:32:16.639Z,72.00
2018-09-06T05:34:44.133Z,69.80
2018-09-06T05:37:11.809Z,69.60
2018-09-06T05:39:39.884Z,69.70
2018-09-06T05:42:07.520Z,70.20
2018-09-06T05:44:44.527Z,70.00
2018-09-06T05:47:12.085Z,68.60
2018-09-06T05:49:39.597Z,65.10
2018-09-06T05:52:07.785Z,64.20
2018-09-06T05:54:35.340Z,63.80
2018-09-06T05:57:02.939Z,62.70
2018-09-06T05:59:31.144Z,60.30
2018-09-06T06:01:58.606Z,57.80
2018-09-06T06:04:26.182Z,56.60
2018-09-06T06:06:53.666Z,55.30
2018-09-06T06:09:21.310Z,53.00
2018-09-06T06:11:49.780Z,51.60
2018-09-06T06:14:17.387Z,50.20
2018-09-06T06:16:44.911Z,47.70
2018-09-06T06:19:12.417Z,48.10
2018-09-06T06:21:40.077Z,46.30
2018-09-06T06:24:07.737Z,44.30
2018-09-06T06:26:35.328Z,44.40
2018-09-06T06:29:02.912Z,43.60
2018-09-06T06:31:30.555Z,42.70
2018-09-06T06:33:58.148Z,41.20
2018-09-06T06:36:25.688Z,41.20
2018-09-06T06:38:53.271Z,40.50
2018-09-06T06:41:20.847Z,39.50
2018-09-06T06:43:48.500Z,39.80
2018-09-06T06:46:16.223Z,38.70
2018-09-06T06:48:43.803Z,37.10
2018-09-06T06:51:11.295Z,37.00
2018-09-06T06:53:38.854Z,35.80
2018-09-06T06:56:06.365Z,34.80
2018-09-06T06:58:33.892Z,34.90
2018-09-06T07:01:01.485Z,33.30
2018-09-06T07:03:28.944Z,32.40
2018-09-06T07:05:56.507Z,32.90
2018-09-06T07:08:24.037Z,31.50
2018-09-06T07:10:52.349Z,31.50
2018-09-06T07:13:19.952Z,31.20
2018-09-06T07:15:47.403Z,30.50
2018-09-06T07:18:15.181Z,31.00
2018-09-06T07:20:42.728Z,30.90
2018-09-06T07:23:10.328Z,29.40
2018-09-06T07:25:38.648Z,28.10
2018-09-06T07:28:06.273Z,27.40
2018-09-06T07:30:33.804Z,27.10
2018-09-06T07:33:01.320Z,26.80
2018-09-06T07:35:28.840Z,26.70
2018-09-06T07:37:56.385Z,25.30
2018-09-06T07:40:23.983Z,25.60
2018-09-06T07:42:53.471Z,26.60
2018-09-06T07:45:21.066Z,26.80
2018-09-06T07:47:48.696Z,27.00
2018-09-06T07:50:16.407Z,26.50
2018-09-06T07:52:44.088Z,26.80
2018-09-06T07:55:11.577Z,26.70
2018-09-06T07:57:39.211Z,27.40
2018-09-06T08:00:06.843Z,27.60
2018-09-06T08:02:34.404Z,28.20
2018-09-06T08:05:02.393Z,27.20
2018-09-06T08:07:29.917Z,27.00
2018-09-06T08:09:57.537Z,26.20
2018-09-06T08:12:25.617Z,25.80
2018-09-06T08:14:53.111Z,26.50
2018-09-06T08:17:20.559Z,26.90
2018-09-06T08:19:48.028Z,27.80
2018-09-06T08:22:15.558Z,28.40
2018-09-06T08:24:43.196Z,28.60
2018-09-06T08:27:10.645Z,28.10
2018-09-06T08:29:38.181Z,28.00
2018-09-06T08:32:05.865Z,26.60
2018-09-06T08:34:33.952Z,25.00
2018-09-06T08:37:01.988Z,24.00
2018-09-06T08:39:29.370Z,21.90
2018-09-06T08:41:56.868Z,21.40
2018-09-06T08:44:24.535Z,20.50
2018-09-06T08:46:52.025Z,19.10
2018-09-06T08:49:19.554Z,18.80
2018-09-06T08:51:47.240Z,18.30
2018-09-06T08:54:14.749Z,18.50
2018-09-06T08:56:42.465Z,18.40
2018-09-06T08:59:10.108Z,19.90
2018-09-06T09:01:38.574Z,19.00
2018-09-06T09:04:06.710Z,19.70
2018-09-06T09:06:34.412Z,18.40
2018-09-06T09:09:01.913Z,18.10
2018-09-06T09:11:29.432Z,17.70
2018-09-06T09:13:57.013Z,18.00
2018-09-06T09:16:24.889Z,18.80
2018-09-06T09:18:52.536Z,18.40
2018-09-06T09:21:20.235Z,18.00
2018-09-06T09:23:47.793Z,18.30
2018-09-06T09:26:15.437Z,19.30
2018-09-06T09:28:43.056Z,19.60
2018-09-06T09:31:10.634Z,20.40
2018-09-06T09:33:38.164Z,20.30
2018-09-06T09:36:05.992Z,20.50
2018-09-06T09:38:33.565Z,20.40
2018-09-06T09:41:01.195Z,21.50
2018-09-06T09:43:28.909Z,22.30
2018-09-06T09:48:23.526Z,21.60
2018-09-06T09:50:51.104Z,21.50
2018-09-06T09:53:18.957Z,21.50
2018-09-06T09:55:46.511Z,22.10
2018-09-06T09:58:14.112Z,22.20
2018-09-06T10:00:42.537Z,22.20
2018-09-06T10:03:15.674Z,22.60
2018-09-06T10:07:57.003Z,24.10
2018-09-06T10:10:25.722Z,24.00
2018-09-06T10:12:53.270Z,24.40
2018-09-06T10:15:20.843Z,23.80
2018-09-06T10:17:48.456Z,24.10
2018-09-06T10:20:16.065Z,22.90
2018-09-06T10:22:43.820Z,22.70
2018-09-06T10:25:11.382Z,21.50
2018-09-06T10:27:39.090Z,21.40
2018-09-06T10:30:06.873Z,21.40
2018-09-06T10:32:34.430Z,21.00
2018-09-06T10:35:01.904Z,20.80
2018-09-06T10:37:29.963Z,20.40
2018-09-06T10:39:57.621Z,20.20
2018-09-06T10:42:25.230Z,20.20
2018-09-06T10:44:52.890Z,20.30
2018-09-06T10:47:20.864Z,19.30
2018-09-06T10:49:48.612Z,19.00
2018-09-06T10:52:16.224Z,17.70
2018-09-06T10:54:44.497Z,16.60
2018-09-06T10:57:12.125Z,17.30
2018-09-06T10:59:39.679Z,16.80
2018-09-06T11:02:07.348Z,16.50
2018-09-06T11:04:34.849Z,16.40
2018-09-06T11:07:02.585Z,17.90
2018-09-06T11:09:30.125Z,18.30
2018-09-06T11:11:57.612Z,20.00
2018-09-06T11:14:30.233Z,20.10
2018-09-06T11:16:57.724Z,18.30
2018-09-06T11:19:25.352Z,16.20
2018-09-06T11:21:53.042Z,18.80
2018-09-06T11:24:20.728Z,18.30
2018-09-06T11:26:48.278Z,16.00
2018-09-06T11:29:15.985Z,15.90
2018-09-06T11:31:43.578Z,16.80
2018-09-06T11:34:11.846Z,16.20
2018-09-06T11:36:39.441Z,16.50
2018-09-06T11:39:08.857Z,13.80
2018-09-06T11:41:36.727Z,12.70
2018-09-06T11:44:04.654Z,13.00
2018-09-06T11:46:32.332Z,11.60
2018-09-06T11:48:59.888Z,12.10
2018-09-06T11:51:27.761Z,12.50
2018-09-06T11:53:55.440Z,14.80
2018-09-06T11:56:22.908Z,16.20
2018-09-06T11:58:50.485Z,15.00
2018-09-06T12:01:18.037Z,16.00
2018-09-06T12:03:45.824Z,15.60
2018-09-06T12:06:13.410Z,17.30
2018-09-06T12:08:40.897Z,18.40
2018-09-06T12:11:08.491Z,18.20
2018-09-06T12:13:36.130Z,19.30
2018-09-06T12:16:03.834Z,20.40
2018-09-06T12:18:31.416Z,21.80
2018-09-06T12:20:59.172Z,22.70
2018-09-06T12:23:27.106Z,23.20
2018-09-06T12:25:54.827Z,21.90
2018-09-06T12:28:22.359Z,23.00
2018-09-06T12:30:50.030Z,23.70
2018-09-06T12:33:18.347Z,22.90
2018-09-06T12:35:45.875Z,22.80
2018-09-06T12:38:14.230Z,23.60
2018-09-06T12:40:41.822Z,24.00
2018-09-06T12:43:09.412Z,24.30
2018-09-06T12:45:37.041Z,25.00
2018-09-06T12:48:05.457Z,25.50
2018-09-06T12:50:33.339Z,26.50
2018-09-06T12:53:00.902Z,27.50
2018-09-06T12:55:28.533Z,28.40
2018-09-06T12:57:56.706Z,28.30
2018-09-06T13:00:24.549Z,29.30
2018-09-06T13:02:52.157Z,29.70
2018-09-06T13:05:19.831Z,30.00
2018-09-06T13:07:47.414Z,43.10
2018-09-06T13:10:15.904Z,52.70
2018-09-06T13:12:43.484Z,57.00
2018-09-06T13:15:11.043Z,59.20
2018-09-06T13:17:38.610Z,63.20
2018-09-06T13:20:06.248Z,64.20
2018-09-06T13:22:33.905Z,67.50
2018-09-06T13:25:01.593Z,69.70
2018-09-06T13:27:29.176Z,72.60
2018-09-06T13:29:56.748Z,69.60
2018-09-06T13:32:24.278Z,69.60
2018-09-06T13:34:51.858Z,71.00
2018-09-06T13:37:19.441Z,70.80
2018-09-06T13:39:47.251Z,71.90
2018-09-06T13:42:14.820Z,71.40
2018-09-06T13:44:42.380Z,72.70
2018-09-06T13:47:10.048Z,70.00
2018-09-06T13:49:37.610Z,72.40
2018-09-06T13:52:05.234Z,70.80
2018-09-06T13:54:32.778Z,70.30
2018-09-06T13:57:00.383Z,69.30
2018-09-06T13:59:28.005Z,70.30
2018-09-06T14:01:55.874Z,69.10
2018-09-06T14:04:23.398Z,72.80
2018-09-06T14:06:50.924Z,75.60
2018-09-06T14:09:18.667Z,71.80
2018-09-06T14:11:46.198Z,72.10
2018-09-06T14:14:13.814Z,71.70
2018-09-06T14:16:41.543Z,74.50
2018-09-06T14:19:08.985Z,69.20
2018-09-06T14:21:36.564Z,68.00
2018-09-06T14:24:09.262Z,71.40
2018-09-06T14:26:36.747Z,70.30
2018-09-06T14:29:04.387Z,72.00
2018-09-06T14:31:32.699Z,72.50
2018-09-06T14:34:00.605Z,71.30
2018-09-06T14:36:28.216Z,73.60
2018-09-06T14:38:56.095Z,72.70
2018-09-06T14:41:23.666Z,67.50
2018-09-06T14:43:51.166Z,65.20
2018-09-06T14:46:18.709Z,65.40
2018-09-06T14:48:46.643Z,61.20
2018-09-06T14:51:14.146Z,56.80
2018-09-06T14:53:41.668Z,55.40
2018-09-06T14:56:09.386Z,53.80
2018-09-06T14:58:36.953Z,52.60
2018-09-06T15:01:04.405Z,53.30
2018-09-06T15:03:32.621Z,53.10
2018-09-06T15:06:00.257Z,53.90
2018-09-06T15:08:27.812Z,53.90
2018-09-06T15:10:55.307Z,54.10
2018-09-06T15:13:23.761Z,56.10
2018-09-06T15:15:51.297Z,56.40
2018-09-06T15:18:18.932Z,58.20
2018-09-06T15:20:46.454Z,60.00
2018-09-06T15:23:14.023Z,60.80
2018-09-06T15:25:41.564Z,58.20
2018-09-06T15:28:09.129Z,58.40
2018-09-06T15:30:36.688Z,57.40
2018-09-06T15:33:04.412Z,54.80
2018-09-06T15:35:31.982Z,55.20
2018-09-06T15:37:59.805Z,55.70
2018-09-06T15:40:27.371Z,55.10
2018-09-06T15:42:54.919Z,53.30
2018-09-06T15:45:22.399Z,53.70
2018-09-06T15:47:49.921Z,53.80
2018-09-06T15:50:17.388Z,53.90
2018-09-06T15:52:45.444Z,55.40
2018-09-06T15:55:12.961Z,56.60
2018-09-06T15:57:40.561Z,56.20
2018-09-06T16:00:08.225Z,56.80
2018-09-06T16:02:35.743Z,59.00
2018-09-06T16:05:03.364Z,59.00
2018-09-06T16:07:31.042Z,59.30
2018-09-06T16:09:58.601Z,60.10
2018-09-06T16:12:26.242Z,59.90
2018-09-06T16:14:53.841Z,59.80
2018-09-06T16:17:21.406Z,60.10
2018-09-06T16:19:49.160Z,61.50
2018-09-06T16:22:16.741Z,61.30
2018-09-06T16:24:44.321Z,62.40
2018-09-06T16:27:11.847Z,63.30
2018-09-06T16:29:39.623Z,64.50
2018-09-06T16:32:07.840Z,64.40
2018-09-06T16:34:35.456Z,66.30
2018-09-06T16:37:03.026Z,65.50
2018-09-06T16:39:30.504Z,64.10
2018-09-06T16:41:58.004Z,66.50
2018-09-06T16:44:25.597Z,66.50
2018-09-06T16:46:53.179Z,66.00
2018-09-06T16:49:20.649Z,68.80
2018-09-06T16:51:48.213Z,68.00
2018-09-06T16:54:15.736Z,70.00
2018-09-06T16:56:43.374Z,70.00
2018-09-06T16:59:10.938Z,67.70
2018-09-06T17:01:38.487Z,69.90
2018-09-06T17:04:06.156Z,70.80
2018-09-06T17:06:34.479Z,69.60
2018-09-06T17:09:03.802Z,69.60
2018-09-06T17:11:31.295Z,69.60
2018-09-06T17:13:58.953Z,71.60
2018-09-06T17:16:26.463Z,71.40
2018-09-06T17:18:54.155Z,72.80
2018-09-06T17:21:21.786Z,74.10
2018-09-06T17:23:49.250Z,73.70
2018-09-06T17:26:17.011Z,74.70
2018-09-06T17:28:44.789Z,75.20
2018-09-06T17:31:12.334Z,76.00
2018-09-06T17:33:39.865Z,77.20
2018-09-06T17:36:07.380Z,76.80
2018-09-06T17:38:34.944Z,80.60
2018-09-06T17:41:02.373Z,75.60
2018-09-06T17:43:29.871Z,74.60
2018-09-06T17:45:57.430Z,78.10
2018-09-06T17:48:24.948Z,78.00
2018-09-06T17:50:52.556Z,79.00
2018-09-06T17:53:20.131Z,80.50
2018-09-06T17:55:47.609Z,80.50
2018-09-06T17:58:15.134Z,80.40
2018-09-06T18:00:45.409Z,80.30
2018-09-06T18:03:13.493Z,80.20
2018-09-06T18:05:41.058Z,80.50
2018-09-06T18:08:08.656Z,80.10
2018-09-06T18:10:37.173Z,80.00
2018-09-06T18:13:04.922Z,80.00
2018-09-06T18:15:32.499Z,81.30
2018-09-06T18:18:00.129Z,79.90
2018-09-06T18:20:28.236Z,79.80
2018-09-06T18:22:56.057Z,82.00
2018-09-06T18:25:23.723Z,84.40
2018-09-06T18:27:51.284Z,84.90
2018-09-06T18:30:19.222Z,84.40
2018-09-06T18:32:46.817Z,84.40
2018-09-06T18:35:14.419Z,85.20
2018-09-06T18:37:41.878Z,86.40
2018-09-06T18:40:09.447Z,86.40
2018-09-06T18:42:37.256Z,88.40
2018-09-06T18:45:04.949Z,88.40
2018-09-06T18:47:32.789Z,88.50
2018-09-06T18:50:00.383Z,89.70
2018-09-06T18:52:27.929Z,89.80
2018-09-06T18:54:55.626Z,89.90
2018-09-06T18:57:23.185Z,90.50
2018-09-06T18:59:50.755Z,91.10
2018-09-06T19:02:18.687Z,89.90
2018-09-06T19:04:46.395Z,89.90
2018-09-06T19:07:13.977Z,89.90
2018-09-06T19:09:41.503Z,89.90
2018-09-06T19:12:09.091Z,89.90
2018-09-06T19:14:36.699Z,89.90
2018-09-06T19:17:04.233Z,89.90
2018-09-06T19:19:31.757Z,89.90
2018-09-06T19:21:59.394Z,89.80
2018-09-06T19:24:26.905Z,89.80
2018-09-06T19:26:54.496Z,89.80
2018-09-06T19:29:22.125Z,89.80
2018-09-06T19:31:49.758Z,89.10
2018-09-06T19:34:17.876Z,90.00
2018-09-06T19:36:45.360Z,88.90
2018-09-06T19:39:12.987Z,88.70
2018-09-06T19:41:40.576Z,88.30
2018-09-06T19:44:08.405Z,87.90
2018-09-06T19:46:36.092Z,87.60
2018-09-06T19:49:03.991Z,86.20
2018-09-06T19:51:31.568Z,87.20
2018-09-06T19:53:59.762Z,87.80
2018-09-06T19:56:27.231Z,89.40
2018-09-06T19:58:54.771Z,87.40
2018-09-06T20:01:22.331Z,88.30
2018-09-06T20:03:50.137Z,89.00
2018-09-06T20:06:17.740Z,88.60
2018-09-06T20:08:45.297Z,87.10
2018-09-06T20:11:12.849Z,89.20
2018-09-06T20:13:40.455Z,87.70
2018-09-06T20:16:08.125Z,87.20
2018-09-06T20:18:35.610Z,89.20
2018-09-06T20:21:03.282Z,90.60
2018-09-06T20:23:30.914Z,88.40
2018-09-06T20:25:58.588Z,89.10
2018-09-06T20:28:26.237Z,88.40
2018-09-06T20:30:53.728Z,88.40
2018-09-06T20:33:21.345Z,89.20
2018-09-06T20:35:49.019Z,87.20
2018-09-06T20:38:16.550Z,86.50
2018-09-06T20:40:44.928Z,87.30
2018-09-06T20:43:12.514Z,87.30
2018-09-06T20:45:40.172Z,86.90
2018-09-06T20:48:07.792Z,85.50
2018-09-06T20:50:35.682Z,84.90
2018-09-06T20:53:03.299Z,84.80
2018-09-06T20:55:30.995Z,85.20
2018-09-06T20:57:58.553Z,86.20
2018-09-06T21:00:26.118Z,86.80
2018-09-06T21:02:53.614Z,86.20
2018-09-06T21:05:21.136Z,86.20
2018-09-06T21:07:48.771Z,85.70
2018-09-06T21:10:16.224Z,86.10
2018-09-06T21:12:43.850Z,86.50
2018-09-06T21:15:11.477Z,87.10
2018-09-06T21:17:39.066Z,86.90
2018-09-06T21:20:06.583Z,87.00
2018-09-06T21:22:34.108Z,87.20
2018-09-06T21:25:01.664Z,87.60
2018-09-06T21:27:29.839Z,88.80
2018-09-06T21:29:58.137Z,88.90
2018-09-06T21:32:25.714Z,88.90
2018-09-06T21:34:53.302Z,88.90
2018-09-06T21:37:20.859Z,88.90
2018-09-06T21:39:48.568Z,88.30
2018-09-06T21:42:16.241Z,88.90
2018-09-06T21:44:44.011Z,88.10
2018-09-06T21:47:12.184Z,87.60
2018-09-06T21:49:39.731Z,88.10
2018-09-06T21:52:07.311Z,88.20
2018-09-06T21:54:34.802Z,88.70
2018-09-06T21:57:02.359Z,88.90
2018-09-06T21:59:30.009Z,87.60
2018-09-06T22:01:57.518Z,88.90
2018-09-06T22:04:25.114Z,88.50
2018-09-06T22:06:52.589Z,88.90
2018-09-06T22:09:20.049Z,88.90
2018-09-06T22:11:47.913Z,88.80
2018-09-06T22:14:15.376Z,88.70
2018-09-06T22:16:42.883Z,90.10
2018-09-06T22:19:10.455Z,90.30
2018-09-06T22:21:38.080Z,90.40
2018-09-06T22:24:05.661Z,90.90
2018-09-06T22:26:33.197Z,90.80
2018-09-06T22:29:00.769Z,90.60
2018-09-06T22:31:28.238Z,90.60
2018-09-06T22:33:55.819Z,90.60
2018-09-06T22:36:23.713Z,91.30
2018-09-06T22:38:51.291Z,90.50
2018-09-06T22:41:18.915Z,90.70
2018-09-06T22:43:46.450Z,90.40
2018-09-06T22:46:13.964Z,90.40
2018-09-06T22:48:41.461Z,90.40
2018-09-06T22:51:09.115Z,90.50
2018-09-06T22:53:36.876Z,90.20
2018-09-06T22:56:04.408Z,89.60
2018-09-06T22:58:32.009Z,89.60
2018-09-06T23:00:59.523Z,90.20
2018-09-06T23:03:32.679Z,90.50
2018-09-06T23:06:00.200Z,90.00
2018-09-06T23:08:27.797Z,89.90
2018-09-06T23:10:55.287Z,90.60
2018-09-06T23:13:22.774Z,90.70
2018-09-06T23:15:50.359Z,90.20
2018-09-06T23:18:17.884Z,90.50
2018-09-06T23:20:45.459Z,90.70
2018-09-06T23:23:13.015Z,91.00
2018-09-06T23:25:40.531Z,91.20
2018-09-06T23:28:08.028Z,91.40
2018-09-06T23:30:35.603Z,91.70
2018-09-06T23:33:03.061Z,91.70
2018-09-06T23:35:30.681Z,91.60
2018-09-06T23:37:58.351Z,91.10
2018-09-06T23:40:25.868Z,91.50
2018-09-06T23:42:53.385Z,91.80
2018-09-06T23:45:21.148Z,91.90
2018-09-06T23:47:48.668Z,92.20
2018-09-06T23:50:16.269Z,92.50
2018-09-06T23:52:43.908Z,92.30
2018-09-06T23:55:11.484Z,91.90
2018-09-06T23:57:38.987Z,92.10
